Time;durP1;ratioP1;P1;durP2;ratioP2;P2;SDS_P1;SDS_P2;PMS_P1;PMS_P2;Temp;Humidity;BMP_temperature;BMP_pressure;BME280_temperature;BME280_humidity;BME280_pressure;Samples;Min_cycle;Max_cycle;Signal;HPM_P1;HPM_P2
2021/08/05 00:01:22;;;;;;;6.80;4.90;;;;;;;15.25;79.54;98998.56;4962797;28;20039;-65
2021/08/05 00:03:47;;;;;;;14.02;4.32;;;;;;;15.30;78.91;99002.00;4968126;28;20054;-65
2021/08/05 00:06:13;;;;;;;7.28;4.25;;;;;;;15.28;79.19;98996.06;4966449;28;20043;-65
2021/08/05 00:08:38;;;;;;;8.45;5.00;;;;;;;15.31;79.34;98987.34;4965546;28;20042;-64
2021/08/05 00:11:04;;;;;;;6.45;5.05;;;;;;;15.31;79.04;98992.75;4959103;28;20097;-64
2021/08/05 00:13:30;;;;;;;6.25;4.60;;;;;;;15.31;79.61;98992.75;4966391;28;20046;-65
2021/08/05 00:15:56;;;;;;;6.90;4.57;;;;;;;15.25;79.84;98985.78;4962977;28;20034;-65
2021/08/05 00:18:22;;;;;;;8.98;5.40;;;;;;;15.23;79.37;98985.28;4965808;28;20393;-65
2021/08/05 00:20:48;;;;;;;9.95;5.72;;;;;;;15.21;79.64;98979.34;4949491;28;20038;-65
2021/08/05 00:23:14;;;;;;;8.57;5.85;;;;;;;15.22;79.49;98976.34;4969744;28;20031;-65
2021/08/05 00:25:40;;;;;;;10.88;6.03;;;;;;;15.22;79.29;98984.50;4969134;28;20396;-65
2021/08/05 00:28:06;;;;;;;9.85;6.15;;;;;;;15.22;79.21;98972.81;4965505;28;20130;-63
2021/08/05 00:30:32;;;;;;;9.80;6.05;;;;;;;15.24;79.55;98980.69;4969753;28;20043;-65
2021/08/05 00:32:58;;;;;;;11.85;6.88;;;;;;;15.22;78.84;98983.66;4950946;28;20039;-64
2021/08/05 00:35:23;;;;;;;6.03;4.90;;;;;;;15.26;79.05;98976.56;4961416;28;20027;-64
2021/08/05 00:37:49;;;;;;;9.15;5.28;;;;;;;15.25;79.03;98983.09;4965683;28;20027;-64
2021/08/05 00:40:14;;;;;;;7.78;5.20;;;;;;;15.18;79.01;98977.22;4963200;28;20388;-67
2021/08/05 00:42:39;;;;;;;7.07;4.93;;;;;;;15.17;79.37;98975.59;4949068;28;20097;-65
2021/08/05 00:45:06;;;;;;;5.93;4.53;;;;;;;15.16;79.01;98980.22;4948686;28;20062;-65
2021/08/05 00:47:31;;;;;;;8.68;4.35;;;;;;;15.13;80.04;98978.09;4968074;28;21471;-65
2021/08/05 00:49:57;;;;;;;9.32;4.57;;;;;;;15.11;79.74;98982.19;4968457;28;20058;-65
2021/08/05 00:52:23;;;;;;;7.82;6.45;;;;;;;15.10;79.80;98975.97;4969033;28;20045;-65
2021/08/05 00:54:49;;;;;;;12.20;7.95;;;;;;;15.09;80.19;98971.66;4966564;28;20050;-64
2021/08/05 00:57:15;;;;;;;12.75;8.82;;;;;;;15.10;80.29;98975.16;4964149;28;20093;-64
2021/08/05 00:59:40;;;;;;;22.33;9.70;;;;;;;15.06;80.35;98974.94;4961223;28;20073;-65
2021/08/05 01:02:11;;;;;;;11.43;8.25;;;;;;;15.10;79.97;98972.44;4966105;28;20600;-65
2021/08/05 01:04:37;;;;;;;9.60;6.28;;;;;;;15.13;80.94;98974.56;4966694;28;20085;-66
2021/08/05 01:07:10;;;;;;;6.80;5.35;;;;;;;15.15;80.73;98969.66;4964501;28;20035;-65
2021/08/05 01:10:00;;;;;;;10.70;6.43;;;;;;;15.14;80.57;98970.75;4947634;28;20043;-65
2021/08/05 01:12:39;;;;;;;22.10;12.82;;;;;;;15.18;79.00;98963.66;4967950;28;20085;-65
2021/08/05 01:15:26;;;;;;;18.52;11.82;;;;;;;15.22;78.52;98956.53;4962925;28;20118;-64
2021/08/05 01:18:14;;;;;;;21.15;12.32;;;;;;;15.21;78.84;98954.94;4966241;28;21580;-65
2021/08/05 01:20:44;;;;;;;20.90;11.25;;;;;;;15.19;78.95;98951.69;4967169;28;20030;-65
2021/08/05 01:23:32;;;;;;;16.17;11.27;;;;;;;15.15;79.28;98956.09;4964186;28;20023;-64
2021/08/05 01:26:10;;;;;;;14.23;9.15;;;;;;;15.12;79.39;98951.25;4965707;28;20082;-66
2021/08/05 01:28:39;;;;;;;11.55;7.43;;;;;;;15.08;79.31;98956.47;4962769;28;20031;-63
2021/08/05 01:31:06;;;;;;;13.95;7.25;;;;;;;15.11;78.98;98945.03;4965843;28;20038;-64
2021/08/05 01:33:32;;;;;;;12.85;6.70;;;;;;;15.11;78.96;98945.03;4969841;28;21124;-63
2021/08/05 01:35:58;;;;;;;14.48;6.78;;;;;;;15.09;78.85;98941.81;4949016;28;20031;-63
2021/08/05 01:38:25;;;;;;;8.88;6.45;;;;;;;15.13;79.05;98932.00;4964959;28;20070;-64
2021/08/05 01:40:53;;;;;;;11.45;6.63;;;;;;;15.10;79.04;98931.75;4964309;28;20026;-64
2021/08/05 01:43:19;;;;;;;16.40;7.03;;;;;;;15.07;78.71;98925.03;4960158;28;20089;-64
2021/08/05 01:45:46;;;;;;;7.72;6.13;;;;;;;15.03;78.69;98926.72;4963167;28;20117;-64
2021/08/05 01:48:13;;;;;;;10.15;6.20;;;;;;;15.00;79.40;98927.28;4966155;28;20039;-64
2021/08/05 01:50:42;;;;;;;12.10;6.03;;;;;;;14.90;79.68;98918.19;4963349;28;20038;-64
2021/08/05 01:53:07;;;;;;;10.23;6.47;;;;;;;14.80;80.15;98912.88;4962309;28;20414;-65
2021/08/05 01:55:33;;;;;;;12.73;6.30;;;;;;;14.73;80.80;98917.88;4965892;28;20031;-64
2021/08/05 01:57:59;;;;;;;7.28;6.22;;;;;;;14.66;81.18;98917.38;4952967;28;20038;-64
2021/08/05 02:00:25;;;;;;;14.90;6.65;;;;;;;14.62;81.04;98914.44;4961052;28;20694;-65
2021/08/05 02:02:53;;;;;;;9.70;6.43;;;;;;;14.57;81.02;98918.03;4965376;28;20118;-64
2021/08/05 02:05:40;;;;;;;7.90;6.68;;;;;;;14.53;81.81;98914.28;4962447;28;20750;-65
2021/08/05 02:08:09;;;;;;;8.82;6.53;;;;;;;14.46;82.18;98908.41;4969169;28;20473;-64
2021/08/05 02:10:37;;;;;;;11.70;6.75;;;;;;;14.46;82.04;98906.50;4968567;28;20043;-64
2021/08/05 02:13:11;;;;;;;13.35;7.13;;;;;;;14.46;82.15;98902.97;4968820;28;20117;-64
2021/08/05 02:15:41;;;;;;;9.93;7.07;;;;;;;14.46;82.55;98908.41;4968627;28;20081;-64
2021/08/05 02:18:10;;;;;;;10.50;6.88;;;;;;;14.44;82.12;98902.47;4965547;28;20043;-64
2021/08/05 02:20:35;;;;;;;15.48;7.57;;;;;;;14.40;82.38;98901.44;4970385;28;20042;-65
2021/08/05 02:23:02;;;;;;;9.88;7.05;;;;;;;14.37;82.57;98896.59;4962326;28;20039;-65
2021/08/05 02:25:29;;;;;;;12.32;8.02;;;;;;;14.37;82.54;98897.41;4965978;28;20039;-65
2021/08/05 02:27:55;;;;;;;12.63;7.43;;;;;;;14.37;83.02;98904.72;4949845;28;20039;-65
2021/08/05 02:30:21;;;;;;;10.15;7.45;;;;;;;14.39;83.04;98892.50;4969812;28;20077;-64
2021/08/05 02:32:49;;;;;;;14.45;8.38;;;;;;;14.39;82.94;98891.69;4953699;28;20034;-65
2021/08/05 02:35:15;;;;;;;15.70;8.60;;;;;;;14.41;83.15;98890.31;4970051;28;20066;-64
2021/08/05 02:37:41;;;;;;;15.00;9.25;;;;;;;14.42;83.16;98891.09;4964648;28;20090;-64
2021/08/05 02:40:08;;;;;;;12.60;8.63;;;;;;;14.40;83.29;98894.13;4954453;28;20046;-64
2021/08/05 02:42:35;;;;;;;12.88;9.90;;;;;;;14.40;83.17;98885.16;4968968;28;20037;-65
2021/08/05 02:45:00;;;;;;;13.38;9.38;;;;;;;14.40;83.20;98882.47;4971912;28;20127;-63
2021/08/05 02:47:26;;;;;;;23.70;10.52;;;;;;;14.38;83.59;98885.47;4970543;28;20050;-63
2021/08/05 02:49:54;;;;;;;13.10;9.52;;;;;;;14.40;83.15;98883.28;4965863;28;20026;-64
2021/08/05 02:52:21;;;;;;;15.15;8.95;;;;;;;14.38;83.03;98879.25;4946979;28;20043;-64
2021/08/05 02:54:47;;;;;;;14.88;9.23;;;;;;;14.39;83.66;98875.44;4964192;28;20027;-64
2021/08/05 02:57:13;;;;;;;20.23;10.10;;;;;;;14.39;83.76;98878.13;4965692;28;20089;-64
2021/08/05 02:59:39;;;;;;;20.55;10.88;;;;;;;14.36;83.95;98876.84;4953468;28;20044;-64
2021/08/05 03:02:05;;;;;;;19.65;9.25;;;;;;;14.36;83.45;98868.72;4952126;28;20046;-64
2021/08/05 03:04:34;;;;;;;13.77;9.32;;;;;;;14.34;83.61;98862.78;4965237;28;20053;-64
2021/08/05 03:07:01;;;;;;;13.85;9.07;;;;;;;14.33;83.45;98863.88;4957351;28;20097;-64
2021/08/05 03:09:27;;;;;;;14.25;9.15;;;;;;;14.32;83.25;98862.25;4970316;28;20480;-64
2021/08/05 03:11:53;;;;;;;12.55;8.60;;;;;;;14.31;83.76;98860.63;4967340;28;20031;-64
2021/08/05 03:14:20;;;;;;;14.88;9.27;;;;;;;14.31;83.79;98855.22;4971427;28;20053;-64
2021/08/05 03:16:45;;;;;;;13.73;8.90;;;;;;;14.29;83.36;98858.22;4962773;28;20152;-64
2021/08/05 03:19:11;;;;;;;13.75;8.07;;;;;;;14.27;83.65;98848.78;4964202;28;20134;-64
2021/08/05 03:21:37;;;;;;;13.10;9.27;;;;;;;14.25;83.92;98853.69;4980357;28;20031;-64
2021/08/05 03:24:02;;;;;;;14.18;9.00;;;;;;;14.22;83.95;98848.84;4953611;28;20485;-64
2021/08/05 03:26:28;;;;;;;14.07;9.27;;;;;;;14.18;83.93;98846.69;4973101;28;20532;-64
2021/08/05 03:28:53;;;;;;;13.30;9.05;;;;;;;14.20;83.90;98849.09;4951607;28;20334;-64
2021/08/05 03:31:19;;;;;;;16.33;9.85;;;;;;;14.19;84.06;98839.38;4961888;28;20452;-64
2021/08/05 03:33:44;;;;;;;16.33;9.85;;;;;;;14.18;84.04;98848.59;4965416;28;20456;-64
2021/08/05 03:36:10;;;;;;;14.45;9.57;;;;;;;14.12;83.89;98834.28;4968443;28;20502;-64
2021/08/05 03:38:35;;;;;;;21.67;10.52;;;;;;;14.09;84.16;98842.19;4969050;28;20030;-64
2021/08/05 03:41:02;;;;;;;16.13;9.98;;;;;;;14.00;83.98;98834.72;4967180;28;20400;-64
2021/08/05 03:43:28;;;;;;;14.20;10.35;;;;;;;13.94;84.58;98833.16;4959678;28;20035;-64
2021/08/05 03:45:55;;;;;;;14.07;10.43;;;;;;;13.88;85.10;98832.38;4955222;28;20476;-64
2021/08/05 03:48:20;;;;;;;20.48;10.85;;;;;;;13.84;85.14;98830.56;4970543;28;20444;-64
2021/08/05 03:50:46;;;;;;;14.57;9.85;;;;;;;13.75;85.27;98839.28;4965649;28;20039;-64
2021/08/05 03:53:12;;;;;;;14.57;9.65;;;;;;;13.65;85.34;98833.16;4953742;28;20456;-64
2021/08/05 03:55:37;;;;;;;15.65;10.60;;;;;;;13.64;85.95;98831.56;4967312;28;20109;-65
2021/08/05 03:58:03;;;;;;;15.20;10.60;;;;;;;13.56;86.12;98822.97;4966957;28;20046;-63
2021/08/05 04:00:28;;;;;;;16.08;10.10;;;;;;;13.50;85.99;98817.91;4966925;28;20045;-63
2021/08/05 04:02:54;;;;;;;13.95;10.18;;;;;;;13.46;86.07;98821.16;4971140;28;20046;-63
2021/08/05 04:05:20;;;;;;;14.00;10.32;;;;;;;13.45;86.27;98819.56;4969749;28;20073;-64
2021/08/05 04:07:46;;;;;;;15.13;10.27;;;;;;;13.45;86.35;98814.16;4971545;28;20034;-64
2021/08/05 04:10:12;;;;;;;14.63;10.25;;;;;;;13.46;86.51;98810.34;4966110;28;20090;-63
2021/08/05 04:12:38;;;;;;;15.13;10.75;;;;;;;13.49;86.26;98805.47;4965253;28;20039;-64
2021/08/05 04:15:04;;;;;;;17.98;11.18;;;;;;;13.48;86.31;98807.34;4971051;28;20042;-64
2021/08/05 04:17:29;;;;;;;15.18;10.80;;;;;;;13.48;86.38;98807.34;4969782;28;20081;-64
2021/08/05 04:19:55;;;;;;;15.93;11.05;;;;;;;13.48;86.34;98804.63;4953451;28;20496;-64
2021/08/05 04:22:20;;;;;;;18.20;10.68;;;;;;;13.50;86.33;98807.88;4972871;28;20039;-64
2021/08/05 04:24:46;;;;;;;14.90;10.32;;;;;;;13.51;86.26;98795.97;4962250;28;20085;-63
2021/08/05 04:27:11;;;;;;;14.60;10.70;;;;;;;13.56;86.44;98798.59;4968441;28;20039;-63
2021/08/05 04:29:37;;;;;;;19.73;11.15;;;;;;;13.58;85.96;98793.72;4969020;28;20093;-64
2021/08/05 04:32:03;;;;;;;19.38;11.68;;;;;;;13.59;85.81;98791.84;4971164;28;20039;-63
2021/08/05 04:34:29;;;;;;;16.33;11.30;;;;;;;13.61;85.94;98782.31;4965102;28;20097;-63
2021/08/05 04:36:55;;;;;;;15.57;11.60;;;;;;;13.63;85.69;98786.66;4964087;28;20057;-63
2021/08/05 04:39:20;;;;;;;14.30;11.45;;;;;;;13.61;85.40;98782.31;4963086;28;20436;-63
2021/08/05 04:41:46;;;;;;;18.63;10.95;;;;;;;13.61;85.26;98782.31;4961393;28;20129;-63
2021/08/05 04:44:13;;;;;;;16.80;10.95;;;;;;;13.65;85.18;98779.06;4955274;28;20030;-64
2021/08/05 04:46:38;;;;;;;18.08;11.18;;;;;;;13.65;84.89;98773.63;4973251;28;20034;-64
2021/08/05 04:49:04;;;;;;;18.02;11.68;;;;;;;13.65;84.98;98770.94;4969895;28;20052;-64
2021/08/05 04:51:34;;;;;;;13.77;11.43;;;;;;;13.65;84.60;98773.63;4964576;28;20678;-64
2021/08/05 04:54:00;;;;;;;14.90;10.75;;;;;;;13.64;84.74;98758.50;4959715;28;20047;-65
2021/08/05 04:56:26;;;;;;;17.42;11.45;;;;;;;13.62;84.92;98769.63;4956013;28;20389;-64
2021/08/05 04:58:52;;;;;;;16.52;11.18;;;;;;;13.61;85.04;98768.00;4973970;28;20091;-64
2021/08/05 05:01:17;;;;;;;19.80;11.30;;;;;;;13.60;84.75;98769.91;4974608;28;20477;-63
2021/08/05 05:03:43;;;;;;;16.80;11.38;;;;;;;13.56;85.05;98757.25;4955124;28;20057;-63
2021/08/05 05:06:08;;;;;;;18.65;11.20;;;;;;;13.53;84.88;98757.81;4968057;28;20050;-63
2021/08/05 05:08:34;;;;;;;18.67;12.05;;;;;;;13.56;85.22;98759.94;4962985;28;20046;-63
2021/08/05 05:11:00;;;;;;;18.02;11.15;;;;;;;13.57;85.09;98764.25;4968009;28;20732;-63
2021/08/05 05:13:26;;;;;;;14.95;11.27;;;;;;;13.57;84.66;98762.34;4972172;28;20035;-64
2021/08/05 05:15:51;;;;;;;16.27;11.07;;;;;;;13.59;84.88;98751.25;4973080;28;20045;-64
2021/08/05 05:18:20;;;;;;;19.20;10.98;;;;;;;13.59;84.66;98749.34;4965252;28;20031;-65
2021/08/05 05:20:46;;;;;;;16.42;11.02;;;;;;;13.63;84.44;98752.28;4969944;28;20031;-65
2021/08/05 05:23:13;;;;;;;14.55;10.90;;;;;;;13.63;84.50;98751.47;4954426;28;20026;-64
2021/08/05 05:25:39;;;;;;;19.27;10.45;;;;;;;13.64;84.37;98748.50;4967139;28;20035;-65
2021/08/05 05:28:05;;;;;;;17.52;11.40;;;;;;;13.66;84.33;98740.91;4964374;28;20042;-65
2021/08/05 05:30:31;;;;;;;13.18;10.68;;;;;;;13.70;84.18;98744.63;4965771;28;20038;-66
2021/08/05 05:32:56;;;;;;;14.50;11.10;;;;;;;13.70;84.24;98741.94;4970490;28;20057;-66
2021/08/05 05:35:23;;;;;;;15.48;10.10;;;;;;;13.70;83.96;98736.53;4965187;28;20436;-66
2021/08/05 05:37:51;;;;;;;16.40;10.30;;;;;;;13.72;84.00;98739.75;4920265;28;20054;-66
2021/08/05 05:40:17;;;;;;;18.48;11.00;;;;;;;13.73;83.72;98735.13;4963725;28;20073;-66
2021/08/05 05:42:43;;;;;;;16.20;10.68;;;;;;;13.78;83.76;98732.34;4946180;28;20074;-67
2021/08/05 05:45:10;;;;;;;19.92;11.13;;;;;;;13.81;83.58;98736.41;4953143;28;20039;-64
2021/08/05 05:47:36;;;;;;;18.40;10.70;;;;;;;13.82;83.12;98736.09;4953335;28;20077;-64
2021/08/05 05:50:02;;;;;;;17.73;10.98;;;;;;;13.77;83.20;98725.34;4967371;28;20063;-64
2021/08/05 05:52:28;;;;;;;17.58;10.98;;;;;;;13.79;83.55;98731.25;4952294;28;20043;-64
2021/08/05 05:54:54;;;;;;;18.05;11.25;;;;;;;13.76;83.47;98732.66;4965936;28;20033;-64
2021/08/05 05:57:19;;;;;;;15.30;11.52;;;;;;;13.80;83.58;98730.16;4969179;28;20089;-66
2021/08/05 05:59:45;;;;;;;16.30;11.55;;;;;;;13.82;83.41;98722.56;4974724;28;20042;-66
2021/08/05 06:02:10;;;;;;;18.35;11.80;;;;;;;13.87;82.95;98717.09;4971536;28;20043;-66
2021/08/05 06:04:36;;;;;;;19.80;11.77;;;;;;;13.96;82.73;98719.97;4973753;28;20058;-66
2021/08/05 06:07:02;;;;;;;21.27;11.52;;;;;;;13.99;82.26;98711.28;4973085;28;20070;-66
2021/08/05 06:09:27;;;;;;;17.27;12.38;;;;;;;14.10;82.26;98714.63;4971679;28;20113;-66
2021/08/05 06:11:53;;;;;;;22.90;12.15;;;;;;;14.15;81.32;98711.88;4971764;28;20039;-66
2021/08/05 06:14:18;;;;;;;17.98;11.70;;;;;;;14.23;81.53;98715.84;4972019;28;20043;-66
2021/08/05 06:16:44;;;;;;;19.38;11.75;;;;;;;14.16;81.44;98718.09;4970820;28;20080;-66
2021/08/05 06:19:11;;;;;;;16.42;11.20;;;;;;;14.07;81.43;98711.72;4971978;28;20033;-67
2021/08/05 06:21:37;;;;;;;27.08;11.43;;;;;;;14.20;81.65;98714.53;4970395;28;20031;-66
2021/08/05 06:24:03;;;;;;;19.38;11.07;;;;;;;14.26;81.24;98712.53;4972139;28;20092;-66
2021/08/05 06:26:29;;;;;;;17.95;11.27;;;;;;;14.47;80.65;98704.13;4969584;28;20066;-65
2021/08/05 06:28:54;;;;;;;15.05;10.90;;;;;;;14.55;78.89;98692.59;4972070;28;20023;-66
2021/08/05 06:31:20;;;;;;;21.55;10.40;;;;;;;14.66;78.47;98692.44;4970873;28;20453;-66
2021/08/05 06:33:53;;;;;;;16.77;10.35;;;;;;;14.75;78.29;98691.53;4966144;28;20039;-65
2021/08/05 06:36:19;;;;;;;13.25;9.30;;;;;;;14.97;77.79;98694.69;4972617;28;20066;-65
2021/08/05 06:38:45;;;;;;;15.30;9.00;;;;;;;15.17;76.13;98686.22;4972988;28;20046;-65
2021/08/05 06:41:10;;;;;;;20.48;8.13;;;;;;;15.36;75.66;98688.03;4971409;28;20035;-65
2021/08/05 06:43:36;;;;;;;11.18;8.30;;;;;;;15.50;74.37;98688.84;4970511;28;20088;-65
2021/08/05 06:46:01;;;;;;;11.43;8.50;;;;;;;15.49;73.51;98683.72;4970597;28;20511;-65
2021/08/05 06:48:27;;;;;;;16.80;8.70;;;;;;;15.55;73.70;98679.78;4972474;28;20089;-65
2021/08/05 06:50:52;;;;;;;14.90;8.40;;;;;;;15.73;72.94;98688.13;4972269;28;20639;-65
2021/08/05 06:53:20;;;;;;;19.52;8.68;;;;;;;15.75;72.79;98681.31;4945459;28;20059;-65
2021/08/05 06:55:45;;;;;;;11.27;7.75;;;;;;;15.78;72.31;98677.16;4948614;28;20385;-66
2021/08/05 06:58:11;;;;;;;11.43;8.45;;;;;;;15.77;72.81;98672.84;4949615;28;20481;-65
2021/08/05 07:00:37;;;;;;;15.18;8.82;;;;;;;15.90;72.31;98671.25;4952721;28;20058;-65
2021/08/05 07:03:02;;;;;;;11.98;8.10;;;;;;;16.08;71.91;98672.25;4956897;28;20042;-65
2021/08/05 07:05:28;;;;;;;14.77;8.70;;;;;;;16.24;71.28;98670.78;4964047;28;20043;-65
2021/08/05 07:07:55;;;;;;;16.25;8.73;;;;;;;16.36;71.81;98659.34;4958817;28;20031;-65
2021/08/05 07:10:21;;;;;;;13.85;8.00;;;;;;;16.41;71.38;98663.06;4951142;28;20043;-66
2021/08/05 07:12:47;;;;;;;12.98;7.60;;;;;;;16.44;70.85;98648.88;4950963;28;20035;-66
2021/08/05 07:15:13;;;;;;;20.35;7.88;;;;;;;16.59;70.87;98653.13;4951998;28;20063;-66
2021/08/05 07:17:40;;;;;;;46.58;9.32;;;;;;;16.68;70.48;98640.41;4955602;28;20070;-66
2021/08/05 07:20:07;;;;;;;17.38;7.68;;;;;;;16.70;68.88;98646.34;4955175;28;20085;-66
2021/08/05 07:22:33;;;;;;;11.40;7.05;;;;;;;16.80;69.13;98634.41;4951698;28;20114;-66
2021/08/05 07:24:58;;;;;;;11.07;6.30;;;;;;;16.90;68.94;98636.88;4951495;28;20039;-66
2021/08/05 07:27:24;;;;;;;11.40;6.55;;;;;;;16.83;69.16;98633.78;4953046;28;20067;-66
2021/08/05 07:29:49;;;;;;;10.05;5.88;;;;;;;16.72;68.57;98637.84;4950594;28;20043;-66
2021/08/05 07:32:15;;;;;;;8.82;5.90;;;;;;;16.73;69.01;98634.00;4953117;28;20043;-66
2021/08/05 07:34:41;;;;;;;13.73;5.45;;;;;;;16.67;68.29;98633.34;4950536;28;20118;-66
2021/08/05 07:37:06;;;;;;;10.68;5.38;;;;;;;16.54;68.28;98632.31;4953062;28;20178;-66
2021/08/05 07:39:32;;;;;;;12.13;4.95;;;;;;;16.59;67.93;98628.66;4951840;28;20043;-66
2021/08/05 07:41:58;;;;;;;7.05;4.80;;;;;;;16.51;67.47;98628.31;4948909;28;20339;-66
2021/08/05 07:44:23;;;;;;;7.80;5.13;;;;;;;16.49;68.53;98627.00;4951886;28;20389;-66
2021/08/05 07:46:49;;;;;;;9.20;5.43;;;;;;;16.47;68.82;98624.59;4951979;28;20452;-66
2021/08/05 07:49:15;;;;;;;6.97;4.75;;;;;;;16.50;68.86;98626.69;4954927;28;20086;-66
2021/08/05 07:51:41;;;;;;;7.93;4.88;;;;;;;16.55;68.33;98620.31;4951038;28;20035;-66
2021/08/05 07:54:07;;;;;;;7.57;5.45;;;;;;;16.62;68.17;98612.53;4963448;28;20043;-66
2021/08/05 07:56:32;;;;;;;9.60;5.70;;;;;;;16.70;68.57;98611.00;4972168;28;20086;-67
2021/08/05 07:58:58;;;;;;;7.30;5.30;;;;;;;16.74;67.64;98614.69;4965664;28;20034;-66
2021/08/05 08:01:24;;;;;;;9.40;5.15;;;;;;;16.75;66.56;98602.69;4958687;28;20043;-67
2021/08/05 08:03:50;;;;;;;9.70;4.88;;;;;;;16.83;65.73;98603.88;4971158;28;20377;-66
2021/08/05 08:06:16;;;;;;;11.95;3.95;;;;;;;16.76;63.94;98598.88;4974428;28;20148;-67
2021/08/05 08:08:41;;;;;;;4.93;3.55;;;;;;;16.87;62.81;98599.41;4971506;28;20520;-67
2021/08/05 08:11:07;;;;;;;5.28;3.40;;;;;;;16.89;62.73;98596.38;4969423;28;20039;-67
2021/08/05 08:13:33;;;;;;;9.80;3.97;;;;;;;16.96;63.25;98594.81;4971806;28;20031;-67
2021/08/05 08:15:58;;;;;;;8.57;3.90;;;;;;;17.00;63.10;98596.94;4969721;28;20698;-67
2021/08/05 08:18:24;;;;;;;7.50;4.00;;;;;;;17.13;63.47;98596.03;4967796;28;20039;-64
2021/08/05 08:20:51;;;;;;;9.13;3.85;;;;;;;17.28;62.86;98589.34;4953429;28;20061;-67
2021/08/05 08:23:17;;;;;;;8.90;3.15;;;;;;;17.31;61.61;98577.03;4954009;28;20027;-65
2021/08/05 08:25:42;;;;;;;6.78;2.60;;;;;;;17.49;59.22;98591.47;4969950;28;20038;-66
2021/08/05 08:28:08;;;;;;;5.78;3.17;;;;;;;17.63;57.67;98578.53;4970693;28;20043;-66
2021/08/05 08:30:35;;;;;;;8.25;2.65;;;;;;;17.72;55.25;98581.28;4968382;28;21714;-66
2021/08/05 08:33:01;;;;;;;4.30;2.22;;;;;;;17.92;55.19;98587.22;4953197;28;20113;-66
2021/08/05 08:35:27;;;;;;;5.18;2.33;;;;;;;18.08;54.33;98571.25;4951891;28;20515;-66
2021/08/05 08:37:52;;;;;;;7.07;2.40;;;;;;;17.89;53.49;98585.13;4970032;28;20423;-66
2021/08/05 08:40:18;;;;;;;5.70;2.30;;;;;;;17.91;53.94;98580.16;4971742;28;20043;-66
2021/08/05 08:42:44;;;;;;;5.30;2.17;;;;;;;17.98;52.44;98585.94;4972794;28;20093;-67
2021/08/05 08:45:12;;;;;;;6.03;2.33;;;;;;;17.89;53.18;98587.84;4972464;28;20129;-66
2021/08/05 08:47:40;;;;;;;6.82;2.33;;;;;;;17.81;53.80;98581.31;4961595;28;20045;-66
2021/08/05 08:50:06;;;;;;;3.00;2.60;;;;;;;17.88;54.38;98591.69;4974668;28;20401;-67
2021/08/05 08:52:35;;;;;;;6.25;2.88;;;;;;;17.88;54.42;98583.53;4971525;28;20035;-66
2021/08/05 08:55:02;;;;;;;3.65;2.85;;;;;;;17.78;55.14;98579.22;4968367;28;20085;-67
2021/08/05 08:57:34;;;;;;;10.98;2.65;;;;;;;17.65;55.63;98579.00;4951142;28;20116;-67
2021/08/05 09:00:04;;;;;;;7.47;2.92;;;;;;;17.47;56.25;98574.66;4948862;28;20566;-67
2021/08/05 09:02:31;;;;;;;5.70;2.78;;;;;;;17.26;57.59;98572.53;4950312;28;20054;-65
2021/08/05 09:04:56;;;;;;;5.18;3.20;;;;;;;17.45;57.25;98572.28;4954728;28;20039;-66
2021/08/05 09:07:25;;;;;;;6.13;3.22;;;;;;;17.47;57.65;98570.03;4968511;28;20097;-66
2021/08/05 09:09:51;;;;;;;4.18;3.17;;;;;;;17.69;57.29;98565.56;4952045;28;20110;-67
2021/08/05 09:12:17;;;;;;;6.70;3.15;;;;;;;17.88;57.30;98557.09;4954483;28;20500;-67
2021/08/05 09:14:49;;;;;;;7.10;3.20;;;;;;;18.08;58.07;98552.94;4960899;28;20094;-66
2021/08/05 09:17:24;;;;;;;4.97;3.42;;;;;;;18.27;56.79;98544.44;4961329;28;20042;-67
2021/08/05 09:19:56;;;;;;;5.97;3.58;;;;;;;18.29;57.32;98535.94;4953931;28;20042;-67
2021/08/05 09:22:33;;;;;;;9.50;4.00;;;;;;;18.61;56.50;98533.78;4956617;28;20038;-65
2021/08/05 09:25:19;;;;;;;5.85;2.85;;;;;;;18.62;57.27;98538.13;4943498;28;20088;-65
2021/08/05 09:27:46;;;;;;;5.80;3.40;;;;;;;18.47;56.99;98533.16;4944423;28;20063;-66
2021/08/05 09:30:25;;;;;;;9.65;3.40;;;;;;;18.60;57.00;98532.19;4949615;28;20040;-65
2021/08/05 09:32:51;;;;;;;4.78;3.30;;;;;;;18.65;56.35;98523.81;4954506;28;20035;-66
2021/08/05 09:35:17;;;;;;;6.18;3.70;;;;;;;18.60;56.62;98523.19;4950692;28;20046;-65
2021/08/05 09:37:43;;;;;;;8.20;3.85;;;;;;;18.62;56.89;98519.03;4942780;29;20031;-65
2021/08/05 09:40:11;;;;;;;10.63;3.60;;;;;;;18.51;57.37;98512.31;4953332;28;20042;-65
2021/08/05 09:42:37;;;;;;;6.68;3.70;;;;;;;18.75;57.53;98509.00;4965916;28;20122;-66
2021/08/05 09:45:02;;;;;;;5.47;3.88;;;;;;;18.95;56.70;98507.50;4941265;28;20190;-65
2021/08/05 09:47:28;;;;;;;8.27;3.85;;;;;;;18.95;56.66;98501.22;4952702;28;20039;-65
2021/08/05 09:49:56;;;;;;;4.72;3.28;;;;;;;18.97;56.51;98505.25;4953123;28;20039;-65
2021/08/05 09:52:33;;;;;;;8.68;3.80;;;;;;;19.04;56.50;98496.53;4948613;28;20031;-65
2021/08/05 09:55:00;;;;;;;8.35;3.70;;;;;;;19.00;56.04;98493.69;4952721;28;20042;-65
2021/08/05 09:57:41;;;;;;;6.82;3.15;;;;;;;19.25;54.92;98490.31;4950690;28;20059;-65
2021/08/05 10:00:16;;;;;;;10.18;2.97;;;;;;;19.54;55.05;98492.22;4953660;28;20043;-66
2021/08/05 10:02:49;;;;;;;5.45;3.13;;;;;;;19.84;53.58;98477.66;4950470;28;20046;-66
2021/08/05 10:05:16;;;;;;;;;;;;;;;19.85;51.99;98488.25;4960475;28;20046;-66
2021/08/05 10:08:01;;;;;;;9.80;3.10;;;;;;;19.79;52.12;98481.41;4956961;28;20032;-66
2021/08/05 10:10:50;;;;;;;5.82;2.65;;;;;;;19.81;52.78;98470.16;4948343;28;20040;-66
2021/08/05 10:13:29;;;;;;;8.07;3.10;;;;;;;19.84;52.01;98477.66;4949665;28;20031;-66
2021/08/05 10:15:55;;;;;;;9.77;3.05;;;;;;;19.79;52.47;98481.41;4952673;28;20058;-67
2021/08/05 10:18:30;;;;;;;6.15;3.28;;;;;;;19.59;53.01;98470.16;4952681;28;20397;-66
2021/08/05 10:20:57;;;;;;;11.23;3.20;;;;;;;19.95;52.27;98464.41;4952021;28;20474;-66
2021/08/05 10:23:24;;;;;;;7.90;2.92;;;;;;;19.85;51.96;98451.94;4953677;28;20366;-66
2021/08/05 10:25:50;;;;;;;7.45;3.22;;;;;;;19.96;51.81;98455.06;4951898;28;20547;-67
2021/08/05 10:28:16;;;;;;;7.60;3.28;;;;;;;20.07;53.48;98448.03;4952579;28;20043;-66
2021/08/05 10:30:43;;;;;;;6.50;2.50;;;;;;;20.52;51.09;98460.09;4951835;28;20099;-67
2021/08/05 10:33:09;;;;;;;3.72;2.80;;;;;;;20.35;50.12;98441.97;4951429;28;20167;-66
2021/08/05 10:35:35;;;;;;;3.92;2.65;;;;;;;20.44;50.28;98439.13;4952607;28;20035;-66
2021/08/05 10:38:03;;;;;;;3.92;2.80;;;;;;;20.50;49.48;98450.63;4951962;28;20031;-66
2021/08/05 10:40:29;;;;;;;6.68;3.33;;;;;;;20.47;49.29;98436.50;4949226;28;20035;-66
2021/08/05 10:42:55;;;;;;;7.07;3.00;;;;;;;20.44;49.14;98442.66;4951517;28;20035;-66
2021/08/05 10:45:21;;;;;;;10.63;3.10;;;;;;;20.50;49.48;98426.81;4952036;28;20038;-66
2021/08/05 10:47:49;;;;;;;6.22;3.10;;;;;;;20.58;50.05;98430.59;4951517;28;20038;-65
2021/08/05 10:50:17;;;;;;;9.52;2.88;;;;;;;20.31;49.20;98424.63;4953886;28;20082;-65
2021/08/05 10:52:50;;;;;;;8.30;3.20;;;;;;;20.46;49.74;98423.97;4954709;28;20050;-66
2021/08/05 10:55:15;;;;;;;4.32;3.15;;;;;;;20.52;50.38;98426.47;4971682;28;20053;-65
2021/08/05 10:57:41;;;;;;;8.48;3.17;;;;;;;20.21;50.78;98417.66;4970778;28;20393;-66
2021/08/05 11:00:14;;;;;;;9.13;3.30;;;;;;;20.27;51.30;98421.78;4970800;28;20094;-65
2021/08/05 11:02:43;;;;;;;7.88;3.80;;;;;;;20.37;50.57;98422.47;4966038;28;20061;-65
2021/08/05 11:05:10;;;;;;;6.88;3.30;;;;;;;20.14;50.69;98417.44;4969060;28;20059;-66
2021/08/05 11:07:36;;;;;;;7.03;3.53;;;;;;;20.16;50.33;98415.94;4971923;28;20038;-66
2021/08/05 11:10:16;;;;;;;5.65;3.47;;;;;;;20.19;50.83;98409.00;4968881;28;20046;-66
2021/08/05 11:12:43;;;;;;;8.27;3.22;;;;;;;20.16;51.40;98393.28;4969813;28;20042;-66
2021/08/05 11:15:32;;;;;;;5.63;4.10;;;;;;;20.31;51.25;98395.34;4971042;28;20030;-66
2021/08/05 11:18:06;;;;;;;10.60;3.60;;;;;;;20.39;51.74;98388.19;4970220;28;20034;-66
2021/08/05 11:20:32;;;;;;;7.30;4.00;;;;;;;20.40;50.97;98383.50;4965444;28;20039;-66
2021/08/05 11:22:58;;;;;;;7.90;4.10;;;;;;;20.40;51.04;98387.06;4966194;28;20375;-65
2021/08/05 11:25:24;;;;;;;13.90;4.05;;;;;;;20.79;50.34;98381.22;4968816;28;20035;-65
2021/08/05 11:28:23;;;;;;;11.15;3.47;;;;;;;20.94;50.58;98382.47;4970741;28;20065;-65